createdAt,value
2022-11-12T00:01:57.531Z,13.83
2022-11-12T00:04:24.788Z,13.83
2022-11-12T00:06:52.073Z,13.70
2022-11-12T00:09:19.484Z,14.30
2022-11-12T00:11:46.422Z,13.23
2022-11-12T00:14:16.390Z,13.27
2022-11-12T00:16:43.334Z,13.40
2022-11-12T00:19:10.400Z,13.63
2022-11-12T00:21:38.246Z,13.00
2022-11-12T00:24:13.977Z,13.13
2022-11-12T00:26:43.859Z,13.00
2022-11-12T00:29:10.960Z,13.20
2022-11-12T00:31:38.259Z,12.70
2022-11-12T00:34:05.824Z,13.33
2022-11-12T00:36:32.864Z,13.17
2022-11-12T00:38:59.874Z,13.03
2022-11-12T00:41:26.874Z,13.13
2022-11-12T00:43:54.209Z,12.70
2022-11-12T00:46:21.267Z,12.63
2022-11-12T00:48:48.257Z,12.77
2022-11-12T00:51:15.339Z,12.53
2022-11-12T00:53:42.248Z,12.30
2022-11-12T00:56:10.178Z,12.57
2022-11-12T00:58:37.316Z,12.03
2022-11-12T01:01:13.667Z,12.33
2022-11-12T01:03:42.075Z,12.20
2022-11-12T01:06:15.748Z,12.03
2022-11-12T01:08:44.072Z,11.63
2022-11-12T01:11:16.506Z,12.07
2022-11-12T01:13:45.601Z,11.80
2022-11-12T01:16:22.381Z,11.33
2022-11-12T01:18:54.186Z,12.03
2022-11-12T01:21:22.298Z,11.57
2022-11-12T01:23:49.349Z,11.97
2022-11-12T01:26:18.691Z,11.40
2022-11-12T01:28:46.362Z,12.20
2022-11-12T01:31:22.460Z,11.67
2022-11-12T01:33:53.353Z,11.87
2022-11-12T01:36:21.137Z,11.90
2022-11-12T01:38:48.677Z,11.03
2022-11-12T01:41:28.525Z,12.23
2022-11-12T01:44:34.138Z,11.83
2022-11-12T01:47:24.186Z,11.20
2022-11-12T01:50:19.811Z,11.93
2022-11-12T01:52:52.203Z,12.20
2022-11-12T01:55:35.352Z,11.80
2022-11-12T01:58:14.394Z,12.17
2022-11-12T02:00:43.426Z,11.87
2022-11-12T02:03:24.188Z,11.37
2022-11-12T02:06:14.202Z,10.90
2022-11-12T02:08:42.165Z,11.43
2022-11-12T02:11:34.991Z,11.70
2022-11-12T02:14:02.549Z,11.93
2022-11-12T02:16:46.522Z,11.63
2022-11-12T02:19:17.057Z,11.27
2022-11-12T02:21:44.511Z,12.23
2022-11-12T02:24:14.431Z,11.10
2022-11-12T02:26:45.778Z,11.23
2022-11-12T02:29:13.578Z,11.03
2022-11-12T02:31:43.740Z,11.70
2022-11-12T02:34:10.691Z,11.23
2022-11-12T02:36:37.830Z,11.53
2022-11-12T02:39:06.003Z,10.70
2022-11-12T02:41:36.310Z,11.90
2022-11-12T02:44:03.360Z,11.67
2022-11-12T02:46:33.480Z,11.03
2022-11-12T02:49:00.750Z,10.77
2022-11-12T02:51:27.741Z,10.77
2022-11-12T02:53:55.864Z,11.83
2022-11-12T02:56:22.905Z,11.60
2022-11-12T02:58:49.999Z,10.73
2022-11-12T03:01:17.006Z,11.67
2022-11-12T03:03:44.166Z,10.90
2022-11-12T03:06:11.097Z,11.00
2022-11-12T03:08:38.100Z,11.63
2022-11-12T03:11:11.146Z,11.23
2022-11-12T03:13:39.120Z,11.77
2022-11-12T03:16:06.298Z,11.07
2022-11-12T03:18:40.482Z,11.43
2022-11-12T03:21:07.732Z,11.73
2022-11-12T03:23:34.818Z,11.13
2022-11-12T03:26:05.409Z,11.27
2022-11-12T03:28:32.878Z,11.73
2022-11-12T03:31:01.100Z,11.33
2022-11-12T03:33:28.434Z,11.83
2022-11-12T03:35:55.709Z,10.83
2022-11-12T03:38:22.739Z,11.17
2022-11-12T03:40:50.425Z,11.30
2022-11-12T03:43:17.420Z,11.20
2022-11-12T03:45:44.373Z,11.40
2022-11-12T03:48:11.458Z,11.07
2022-11-12T03:50:38.490Z,10.87
2022-11-12T03:53:05.769Z,11.13
2022-11-12T03:55:32.767Z,11.23
2022-11-12T03:58:00.003Z,10.80
2022-11-12T04:00:30.027Z,10.70
2022-11-12T04:03:06.819Z,11.07
2022-11-12T04:05:55.162Z,10.80
2022-11-12T04:08:36.093Z,10.90
2022-11-12T04:11:14.769Z,11.47
2022-11-12T04:13:45.794Z,10.33
2022-11-12T04:16:35.472Z,11.13
2022-11-12T04:19:23.157Z,12.23
2022-11-12T04:22:03.973Z,11.80
2022-11-12T04:24:54.881Z,10.77
2022-11-12T04:27:23.601Z,10.90
2022-11-12T04:30:10.231Z,11.47
2022-11-12T04:32:44.757Z,11.10
2022-11-12T04:35:12.283Z,11.73
2022-11-12T04:37:51.596Z,11.47
2022-11-12T04:40:42.918Z,11.50
2022-11-12T04:43:31.314Z,10.93
2022-11-12T04:45:59.854Z,12.00
2022-11-12T04:48:27.473Z,11.57
2022-11-12T04:51:03.222Z,11.30
2022-11-12T04:53:33.594Z,11.57
2022-11-12T04:56:00.733Z,11.77
2022-11-12T04:58:28.260Z,11.43
2022-11-12T05:00:55.868Z,11.27
2022-11-12T05:03:26.021Z,11.60
2022-11-12T05:05:55.901Z,11.53
2022-11-12T05:08:28.161Z,11.07
2022-11-12T05:10:55.664Z,11.23
2022-11-12T05:13:22.712Z,10.77
2022-11-12T05:15:49.819Z,10.30
2022-11-12T05:18:16.875Z,11.10
2022-11-12T05:20:44.126Z,12.50
2022-11-12T05:23:11.325Z,12.23
2022-11-12T05:25:38.635Z,12.70
2022-11-12T05:28:07.053Z,12.97
2022-11-12T05:30:38.108Z,13.40
2022-11-12T05:33:05.318Z,13.83
2022-11-12T05:35:32.562Z,13.67
2022-11-12T05:38:02.518Z,13.33
2022-11-12T05:40:29.938Z,13.47
2022-11-12T05:42:57.172Z,13.77
2022-11-12T05:45:24.190Z,14.57
2022-11-12T05:47:51.544Z,14.40
2022-11-12T05:50:18.748Z,13.23
2022-11-12T05:52:45.980Z,14.07
2022-11-12T05:55:13.299Z,13.07
2022-11-12T05:57:40.605Z,13.57
2022-11-12T06:00:11.594Z,14.70
2022-11-12T06:02:44.456Z,14.67
2022-11-12T06:05:11.733Z,14.20
2022-11-12T06:07:39.126Z,13.80
2022-11-12T06:10:06.894Z,14.20
2022-11-12T06:12:34.270Z,13.60
2022-11-12T06:15:03.824Z,13.73
2022-11-12T06:17:34.043Z,12.70
2022-11-12T06:20:01.298Z,14.43
2022-11-12T06:22:28.650Z,14.63
2022-11-12T06:24:55.852Z,15.50
2022-11-12T06:27:24.285Z,14.87
2022-11-12T06:30:04.143Z,15.17
2022-11-12T06:32:39.943Z,14.10
2022-11-12T06:35:07.525Z,15.33
2022-11-12T06:37:38.286Z,16.23
2022-11-12T06:40:06.092Z,16.80
2022-11-12T06:42:33.968Z,16.93
2022-11-12T06:45:01.192Z,16.53
2022-11-12T06:47:30.577Z,17.00
2022-11-12T06:49:57.753Z,16.77
2022-11-12T06:52:24.813Z,16.37
2022-11-12T06:54:53.087Z,17.47
2022-11-12T06:57:20.603Z,17.13
2022-11-12T06:59:47.660Z,16.27
2022-11-12T07:02:14.904Z,16.17
2022-11-12T07:04:41.959Z,15.63
2022-11-12T07:07:10.819Z,16.13
2022-11-12T07:09:38.341Z,15.60
2022-11-12T07:12:15.074Z,15.90
2022-11-12T07:14:47.866Z,17.27
2022-11-12T07:17:15.069Z,19.00
2022-11-12T07:19:42.080Z,18.07
2022-11-12T07:22:09.038Z,19.33
2022-11-12T07:24:36.013Z,20.53
2022-11-12T07:27:03.456Z,20.33
2022-11-12T07:29:46.984Z,21.20
2022-11-12T07:32:14.844Z,21.53
2022-11-12T07:34:41.864Z,20.80
2022-11-12T07:37:11.406Z,21.13
2022-11-12T07:39:38.784Z,20.57
2022-11-12T07:42:06.348Z,21.87
2022-11-12T07:44:33.596Z,21.27
2022-11-12T07:47:00.795Z,20.63
2022-11-12T07:49:27.854Z,22.47
2022-11-12T07:51:54.882Z,23.37
2022-11-12T07:54:22.035Z,22.20
2022-11-12T07:56:49.041Z,22.10
2022-11-12T07:59:16.027Z,22.90
2022-11-12T08:01:43.146Z,23.77
2022-11-12T08:04:11.904Z,22.77
2022-11-12T08:06:38.854Z,25.50
2022-11-12T08:09:07.737Z,24.03
2022-11-12T08:11:35.231Z,23.47
2022-11-12T08:14:02.824Z,23.17
2022-11-12T08:16:30.043Z,22.70
2022-11-12T08:18:57.065Z,23.27
2022-11-12T08:21:23.971Z,22.47
2022-11-12T08:23:50.966Z,22.10
2022-11-12T08:26:22.171Z,22.97
2022-11-12T08:28:49.385Z,22.47
2022-11-12T08:31:19.352Z,23.20
2022-11-12T08:33:46.262Z,21.37
2022-11-12T08:36:15.649Z,22.77
2022-11-12T08:38:43.388Z,21.83
2022-11-12T08:41:13.527Z,22.47
2022-11-12T08:43:42.351Z,21.53
2022-11-12T08:46:10.145Z,23.03
2022-11-12T08:48:37.122Z,23.30
2022-11-12T08:51:05.441Z,22.63
2022-11-12T08:53:32.913Z,22.40
2022-11-12T08:55:59.866Z,22.33
2022-11-12T08:58:27.161Z,22.67
2022-11-12T09:00:55.255Z,22.77
2022-11-12T09:03:24.454Z,22.00
2022-11-12T09:05:51.896Z,22.23
2022-11-12T09:08:22.094Z,22.13
2022-11-12T09:10:53.354Z,21.80
2022-11-12T09:13:21.107Z,22.83
2022-11-12T09:15:48.147Z,20.30
2022-11-12T09:18:17.456Z,22.53
2022-11-12T09:20:44.543Z,21.90
2022-11-12T09:23:13.905Z,23.03
2022-11-12T09:25:41.643Z,22.63
2022-11-12T09:28:12.388Z,23.23
2022-11-12T09:30:45.500Z,22.20
2022-11-12T09:33:31.148Z,24.07
2022-11-12T09:36:03.270Z,22.83
2022-11-12T09:38:30.955Z,23.50
2022-11-12T09:41:09.898Z,23.57
2022-11-12T09:43:59.919Z,23.60
2022-11-12T09:46:53.042Z,23.90
2022-11-12T09:49:43.199Z,24.07
2022-11-12T09:52:19.383Z,24.57
2022-11-12T09:54:50.506Z,24.97
2022-11-12T09:57:17.528Z,24.80
2022-11-12T09:59:44.522Z,24.20
2022-11-12T10:02:23.595Z,24.80
2022-11-12T10:05:15.023Z,27.13
2022-11-12T10:07:52.875Z,25.80
2022-11-12T10:10:46.061Z,25.87
2022-11-12T10:13:15.583Z,27.50
2022-11-12T10:16:15.582Z,25.80
2022-11-12T10:19:03.950Z,26.07
2022-11-12T10:21:42.674Z,27.33
2022-11-12T10:24:11.654Z,26.63
2022-11-12T10:26:40.233Z,26.00
2022-11-12T10:29:31.813Z,27.00
2022-11-12T10:32:02.508Z,26.47
2022-11-12T10:34:31.231Z,26.40
2022-11-12T10:37:07.754Z,27.10
2022-11-12T10:39:41.257Z,26.47
2022-11-12T10:42:13.505Z,26.53
2022-11-12T10:44:43.205Z,26.63
2022-11-12T10:47:21.784Z,26.03
2022-11-12T10:50:10.311Z,27.37
2022-11-12T10:52:37.599Z,27.80
2022-11-12T10:55:18.083Z,28.00
2022-11-12T10:57:45.029Z,26.90
2022-11-12T11:00:18.675Z,26.73
2022-11-12T11:02:55.559Z,28.27
2022-11-12T11:05:53.271Z,27.73
2022-11-12T11:08:40.519Z,27.60
2022-11-12T11:11:20.686Z,29.90
2022-11-12T11:13:55.381Z,27.90
2022-11-12T11:16:28.355Z,28.30
2022-11-12T11:19:02.411Z,28.57
2022-11-12T11:21:50.560Z,28.10
2022-11-12T11:24:23.159Z,27.87
2022-11-12T11:26:56.899Z,27.97
2022-11-12T11:29:39.407Z,25.90
2022-11-12T11:32:20.177Z,27.97
2022-11-12T11:35:26.154Z,27.87
2022-11-12T11:37:58.185Z,28.03
2022-11-12T11:40:36.655Z,27.70
2022-11-12T11:43:25.224Z,29.43
2022-11-12T11:46:21.276Z,27.83
2022-11-12T11:48:54.040Z,27.40
2022-11-12T11:51:43.694Z,29.77
2022-11-12T11:54:30.358Z,27.07
2022-11-12T11:57:00.172Z,27.93
2022-11-12T11:59:51.092Z,27.10
2022-11-12T12:02:29.511Z,27.33
2022-11-12T12:05:06.216Z,28.27
2022-11-12T12:08:05.824Z,27.87
2022-11-12T12:11:08.286Z,26.83
2022-11-12T12:13:55.695Z,27.47
2022-11-12T12:16:53.526Z,28.07
2022-11-12T12:19:38.499Z,24.87
2022-11-12T12:22:14.239Z,24.57
2022-11-12T12:25:09.380Z,23.93
2022-11-12T12:27:42.622Z,25.50
2022-11-12T12:30:27.948Z,25.20
2022-11-12T12:33:21.248Z,24.20
2022-11-12T12:35:52.280Z,23.53
2022-11-12T12:38:29.407Z,24.33
2022-11-12T12:41:12.866Z,23.27
2022-11-12T12:44:04.054Z,22.50
2022-11-12T12:46:39.675Z,20.67
2022-11-12T12:49:10.430Z,21.97
2022-11-12T12:51:37.315Z,22.03
2022-11-12T12:54:25.389Z,21.33
2022-11-12T12:56:52.518Z,21.83
2022-11-12T12:59:22.273Z,21.33
2022-11-12T13:01:58.214Z,21.37
2022-11-12T13:04:54.730Z,20.10
2022-11-12T13:07:44.361Z,17.50
2022-11-12T13:10:41.606Z,17.13
2022-11-12T13:13:17.655Z,16.77
2022-11-12T13:15:48.461Z,16.53
2022-11-12T13:18:37.004Z,16.07
2022-11-12T13:21:15.766Z,16.07
2022-11-12T13:24:04.020Z,15.43
2022-11-12T13:26:39.960Z,14.50
2022-11-12T13:29:29.290Z,14.53
2022-11-12T13:32:38.218Z,15.07
2022-11-12T13:35:17.473Z,13.67
2022-11-12T13:37:57.002Z,13.70
2022-11-12T13:40:49.653Z,13.23
2022-11-12T13:43:18.368Z,13.10
2022-11-12T13:45:53.966Z,13.93
2022-11-12T13:48:46.007Z,12.97
2022-11-12T13:51:27.131Z,14.00
2022-11-12T13:53:53.964Z,13.03
2022-11-12T13:56:35.395Z,13.03
2022-11-12T13:59:14.964Z,13.87
2022-11-12T14:01:42.943Z,14.50
2022-11-12T14:04:19.021Z,13.93
2022-11-12T14:06:49.062Z,15.30
2022-11-12T14:09:15.834Z,16.37
2022-11-12T14:12:04.186Z,16.10
2022-11-12T14:15:12.971Z,16.53
2022-11-12T14:17:48.105Z,18.03
2022-11-12T14:20:25.165Z,18.30
2022-11-12T14:22:53.007Z,18.30
2022-11-12T14:25:21.248Z,19.23
2022-11-12T14:27:50.385Z,19.23
2022-11-12T14:30:28.303Z,20.20
2022-11-12T14:33:08.798Z,21.23
2022-11-12T14:35:40.235Z,20.70
2022-11-12T14:38:47.372Z,20.80
2022-11-12T14:41:26.081Z,21.20
2022-11-12T14:44:12.107Z,20.97
2022-11-12T14:46:47.484Z,21.63
2022-11-12T14:49:27.998Z,21.67
2022-11-12T14:52:03.034Z,21.27
2022-11-12T14:54:43.749Z,21.80
2022-11-12T14:57:20.540Z,22.30
2022-11-12T14:59:47.566Z,20.83
2022-11-12T15:05:18.723Z,22.40
2022-11-12T15:07:58.095Z,21.83
2022-11-12T15:10:30.013Z,22.17
2022-11-12T15:13:05.324Z,21.77
2022-11-12T15:15:34.139Z,21.87
2022-11-12T15:18:06.105Z,22.37
2022-11-12T15:20:33.028Z,21.77
2022-11-12T15:23:00.191Z,22.30
2022-11-12T15:25:29.983Z,22.10
2022-11-12T15:28:21.554Z,22.00
2022-11-12T15:31:17.518Z,22.67
2022-11-12T15:33:44.393Z,22.10
2022-11-12T15:36:21.892Z,21.77
2022-11-12T15:38:53.947Z,22.20
2022-11-12T15:41:30.675Z,22.73
2022-11-12T15:43:57.620Z,22.90
2022-11-12T15:46:24.451Z,22.70
2022-11-12T15:48:55.830Z,23.40
2022-11-12T15:51:23.125Z,23.80
2022-11-12T15:53:49.965Z,22.93
2022-11-12T15:56:21.687Z,23.17
2022-11-12T15:58:48.740Z,21.80
2022-11-12T16:01:15.628Z,22.03
2022-11-12T16:03:42.449Z,22.60
2022-11-12T16:06:12.006Z,22.57
2022-11-12T16:08:38.820Z,23.40
2022-11-12T16:11:25.750Z,23.13
2022-11-12T16:13:52.867Z,21.73
2022-11-12T16:16:22.102Z,22.70
2022-11-12T16:18:48.992Z,22.67
2022-11-12T16:21:20.682Z,21.97
2022-11-12T16:23:48.112Z,21.57
2022-11-12T16:26:24.624Z,19.57
2022-11-12T16:28:51.451Z,19.50
2022-11-12T16:31:20.247Z,19.43
2022-11-12T16:33:47.108Z,19.33
2022-11-12T16:36:15.658Z,19.23
2022-11-12T16:38:42.768Z,19.37
2022-11-12T16:41:11.806Z,19.67
2022-11-12T16:43:39.369Z,18.50
2022-11-12T16:46:26.160Z,19.47
2022-11-12T16:48:53.898Z,18.20
2022-11-12T16:51:21.969Z,19.60
2022-11-12T16:53:48.878Z,18.77
2022-11-12T16:56:21.111Z,18.20
2022-11-12T16:58:49.085Z,18.53
2022-11-12T17:01:32.980Z,17.87
2022-11-12T17:04:00.316Z,17.97
2022-11-12T17:06:36.745Z,16.87
2022-11-12T17:09:06.321Z,17.50
2022-11-12T17:11:34.525Z,17.07
2022-11-12T17:14:02.163Z,17.13
2022-11-12T17:16:29.401Z,17.30
2022-11-12T17:18:57.692Z,16.90
2022-11-12T17:21:24.729Z,17.00
2022-11-12T17:23:52.009Z,17.00
2022-11-12T17:26:20.388Z,16.80
2022-11-12T17:28:48.425Z,16.47
2022-11-12T17:31:20.148Z,16.90
2022-11-12T17:33:49.615Z,17.40
2022-11-12T17:36:19.587Z,16.83
2022-11-12T17:38:46.845Z,18.03
2022-11-12T17:41:13.991Z,17.63
2022-11-12T17:43:43.183Z,16.40
2022-11-12T17:46:13.087Z,17.93
2022-11-12T17:48:40.243Z,16.93
2022-11-12T17:51:16.957Z,16.80
2022-11-12T17:53:43.911Z,18.67
2022-11-12T17:56:13.956Z,18.47
2022-11-12T17:58:41.100Z,18.03
2022-11-12T18:01:23.149Z,17.60
2022-11-12T18:03:51.973Z,17.07
2022-11-12T18:06:21.470Z,22.27
2022-11-12T18:08:56.171Z,18.80
2022-11-12T18:11:24.274Z,17.73
2022-11-12T18:13:51.346Z,18.10
2022-11-12T18:16:27.148Z,18.93
2022-11-12T18:18:56.631Z,17.87
2022-11-12T18:21:25.034Z,17.50
2022-11-12T18:23:52.411Z,17.87
2022-11-12T18:26:20.928Z,18.87
2022-11-12T18:28:58.367Z,23.30
2022-11-12T18:31:27.379Z,26.03
2022-11-12T18:33:55.585Z,27.80
2022-11-12T18:36:25.122Z,25.60
2022-11-12T18:38:55.495Z,24.90
2022-11-12T18:41:25.992Z,23.13
2022-11-12T18:43:53.955Z,23.83
2022-11-12T18:46:21.034Z,21.47
2022-11-12T18:48:48.113Z,23.27
2022-11-12T18:51:17.499Z,22.17
2022-11-12T18:53:45.729Z,21.40
2022-11-12T18:56:17.734Z,22.20
2022-11-12T18:58:44.526Z,23.63
2022-11-12T19:01:20.542Z,23.50
2022-11-12T19:03:48.391Z,22.97
2022-11-12T19:06:15.408Z,23.47
2022-11-12T19:08:42.225Z,24.13
2022-11-12T19:11:15.401Z,25.40
2022-11-12T19:13:42.877Z,25.83
2022-11-12T19:16:12.793Z,25.00
2022-11-12T19:18:41.183Z,26.30
2022-11-12T19:21:12.521Z,26.87
2022-11-12T19:23:39.682Z,27.40
2022-11-12T19:26:08.495Z,27.60
2022-11-12T19:28:35.586Z,29.53
2022-11-12T19:31:07.602Z,29.07
2022-11-12T19:33:34.957Z,29.63
2022-11-12T19:36:06.853Z,29.70
2022-11-12T19:38:34.021Z,28.83
2022-11-12T19:41:10.558Z,29.13
2022-11-12T19:43:41.582Z,29.50
2022-11-12T19:46:09.865Z,29.00
2022-11-12T19:48:37.018Z,28.83
2022-11-12T19:51:05.984Z,29.57
2022-11-12T19:53:34.373Z,29.43
2022-11-12T19:56:06.942Z,29.60
2022-11-12T19:58:34.362Z,30.87
2022-11-12T20:01:13.663Z,29.97
2022-11-12T20:03:41.183Z,30.87
2022-11-12T20:06:13.417Z,32.00
2022-11-12T20:08:40.514Z,32.47
2022-11-12T20:11:07.632Z,32.30
2022-11-12T20:13:34.538Z,32.50
2022-11-12T20:16:10.139Z,31.10
2022-11-12T20:18:36.981Z,31.47
2022-11-12T20:21:04.937Z,32.70
2022-11-12T20:23:34.012Z,31.23
2022-11-12T20:26:12.418Z,32.17
2022-11-12T20:28:41.004Z,32.03
2022-11-12T20:31:14.518Z,32.80
2022-11-12T20:33:42.699Z,32.53
2022-11-12T20:36:15.249Z,32.73
2022-11-12T20:38:44.309Z,31.97
2022-11-12T20:41:25.514Z,34.60
2022-11-12T20:43:57.682Z,33.13
2022-11-12T20:46:25.717Z,33.23
2022-11-12T20:48:55.872Z,33.77
2022-11-12T20:51:26.039Z,34.53
2022-11-12T20:53:59.500Z,34.60
2022-11-12T20:56:28.678Z,33.57
2022-11-12T20:58:55.888Z,35.50
2022-11-12T21:01:24.574Z,35.33
2022-11-12T21:03:52.132Z,35.03
2022-11-12T21:06:22.066Z,34.50
2022-11-12T21:08:49.421Z,34.77
2022-11-12T21:11:18.499Z,34.30
2022-11-12T21:13:45.414Z,34.20
2022-11-12T21:16:13.554Z,34.87
2022-11-12T21:18:43.811Z,35.03
2022-11-12T21:21:16.573Z,33.87
2022-11-12T21:23:44.962Z,34.77
2022-11-12T21:26:20.354Z,34.93
2022-11-12T21:28:56.259Z,33.97
2022-11-12T21:31:25.915Z,35.73
2022-11-12T21:33:55.061Z,34.27
2022-11-12T21:36:23.130Z,34.40
2022-11-12T21:38:50.201Z,34.53
2022-11-12T21:41:19.966Z,34.07
2022-11-12T21:43:47.555Z,33.83
2022-11-12T21:46:24.659Z,34.40
2022-11-12T21:48:55.270Z,34.03
2022-11-12T21:51:27.866Z,34.53
2022-11-12T21:53:59.636Z,34.00
2022-11-12T21:56:27.023Z,34.17
2022-11-12T21:59:04.595Z,34.13
2022-11-12T22:01:34.193Z,34.63
2022-11-12T22:04:06.144Z,34.23
2022-11-12T22:06:37.405Z,35.73
2022-11-12T22:09:05.322Z,35.67
2022-11-12T22:11:32.218Z,35.20
2022-11-12T22:13:59.048Z,34.70
2022-11-12T22:16:27.654Z,33.50
2022-11-12T22:18:55.822Z,34.43
2022-11-12T22:21:27.608Z,34.23
2022-11-12T22:23:55.916Z,35.33
2022-11-12T22:26:25.609Z,34.87
2022-11-12T22:28:57.288Z,34.67
2022-11-12T22:31:27.573Z,33.77
2022-11-12T22:33:54.907Z,33.63
2022-11-12T22:36:23.766Z,33.83
2022-11-12T22:38:52.493Z,33.00
2022-11-12T22:41:22.325Z,35.03
2022-11-12T22:43:51.001Z,34.27
2022-11-12T22:46:25.580Z,35.17
2022-11-12T22:48:52.837Z,34.03
2022-11-12T22:51:22.079Z,33.93
2022-11-12T22:53:57.431Z,33.83
2022-11-12T22:56:25.360Z,32.20
2022-11-12T22:58:52.915Z,33.03
2022-11-12T23:01:28.946Z,32.87
2022-11-12T23:03:58.036Z,31.83
2022-11-12T23:06:26.193Z,32.90
2022-11-12T23:08:53.769Z,32.67
2022-11-12T23:11:21.743Z,32.63
2022-11-12T23:13:48.933Z,33.00
2022-11-12T23:16:19.011Z,32.43
2022-11-12T23:18:46.226Z,33.93
2022-11-12T23:21:20.035Z,32.93
2022-11-12T23:23:47.131Z,33.60
2022-11-12T23:26:22.266Z,31.73
2022-11-12T23:28:49.478Z,31.90
2022-11-12T23:31:19.720Z,33.17
2022-11-12T23:33:48.108Z,32.30
2022-11-12T23:36:15.289Z,31.67
2022-11-12T23:38:42.293Z,31.97
2022-11-12T23:41:12.331Z,31.37
2022-11-12T23:43:39.131Z,30.73
2022-11-12T23:46:06.277Z,32.07
2022-11-12T23:48:33.121Z,31.87
2022-11-12T23:51:06.426Z,31.40
2022-11-12T23:53:34.562Z,29.83
2022-11-12T23:56:01.868Z,31.10
2022-11-12T23:58:29.541Z,31.93
